Impacts TAF Board INFO
FOR SITUATIONAL AWARENESS. NOT TO BE USED FOR FLIGHT PLANNING PURPOSES.
IDs:

KDEN - Denver Intl, CO, US

Issued at 0106 UTC 20 Feb 2018
Updated at 0120 UTC 20 Feb 2018
Potential Impact None Slight Moderate High
Time<<20/14Z 20/15Z 20/16Z 20/17Z 20/18Z 20/19Z 20/20Z 20/21Z 20/22Z 20/23Z 21/00Z 21/01Z 21/02Z>>
Type PRVL PRVL PRVL PRVL PRVL PRVL PRVL PRVL PRVL PRVL PRVL PRVL PRVL
VIS 3 >6 >6 >6 >6 >6 >6 >6 >6 >6 >6 >6 >6
CIG 8 25 25 25 45 45 45 45 45 45 45 100 100
Cover OVC BKN BKN BKN OVC OVC OVC OVC OVC OVC OVC BKN BKN
FltCat IFR MVFR MVFR MVFR VFR VFR VFR VFR VFR VFR VFR VFR VFR
WX BR -- -- -- -- -- -- -- -- -- -- -- --
WDir 40 110 110 110 60 60 60 60 60 60 60 130 130
WSpd 8 4 4 4 7 7 7 7 7 7 7 8 8
WGst -- -- -- -- -- -- -- -- -- -- -- -- --

Raw TAF
KDEN 200106Z 2001/2106 07011KT 2SM -SN BR FEW008 SCT010 OVC024
  TEMPO 2001/2002 3/4SM -SN BR SCT008 OVC010
  FM200400 02010KT 3SM -SN BR OVC010
  FM200700 35010KT 5SM BR OVC012
  FM201000 04008KT 3SM BR SCT004 OVC008
  FM201500 11004KT P6SM SCT015 BKN025
  FM201800 06007KT P6SM SCT030 OVC045
  FM210100 13008KT P6SM SCT050 BKN100


METAR Board
Radar Display
Forecast Discussion

FOR SITUATIONAL AWARENESS. NOT TO BE USED FOR FLIGHT PLANNING PURPOSES.